createdAt,value
2022-09-27T00:02:25.122Z,2.00
2022-09-27T00:04:51.743Z,2.01
2022-09-27T00:07:18.441Z,2.06
2022-09-27T00:09:45.135Z,2.15
2022-09-27T00:12:11.734Z,2.07
2022-09-27T00:14:38.362Z,2.07
2022-09-27T00:17:04.983Z,2.33
2022-09-27T00:19:31.590Z,2.08
2022-09-27T00:21:58.184Z,2.28
2022-09-27T00:24:24.758Z,2.17
2022-09-27T00:26:51.518Z,2.04
2022-09-27T00:29:19.420Z,2.20
2022-09-27T00:31:47.020Z,2.29
2022-09-27T00:34:23.728Z,2.02
2022-09-27T00:36:51.675Z,2.45
2022-09-27T00:39:18.879Z,2.58
2022-09-27T00:41:45.944Z,2.34
2022-09-27T00:44:27.753Z,2.48
2022-09-27T00:47:09.461Z,2.30
2022-09-27T00:49:55.338Z,2.15
2022-09-27T00:52:29.436Z,2.13
2022-09-27T00:55:06.910Z,1.99
2022-09-27T00:57:34.631Z,2.22
2022-09-27T01:00:06.869Z,2.03
2022-09-27T01:02:34.181Z,1.83
2022-09-27T01:05:01.256Z,1.71
2022-09-27T01:07:27.845Z,1.77
2022-09-27T01:09:54.529Z,1.99
2022-09-27T01:12:50.316Z,2.19
2022-09-27T01:15:31.241Z,2.00
2022-09-27T01:18:11.815Z,1.70
2022-09-27T01:21:07.517Z,1.54
2022-09-27T01:24:01.280Z,1.27
2022-09-27T01:26:56.776Z,1.12
2022-09-27T01:29:48.012Z,1.29
2022-09-27T01:32:37.738Z,1.31
2022-09-27T01:35:25.683Z,1.13
2022-09-27T01:38:38.670Z,1.13
2022-09-27T01:41:20.554Z,0.93
2022-09-27T01:44:00.698Z,0.85
2022-09-27T01:46:35.376Z,0.80
2022-09-27T01:49:09.694Z,0.76
2022-09-27T01:51:49.544Z,0.55
2022-09-27T01:54:24.703Z,0.61
2022-09-27T01:56:56.452Z,0.67
2022-09-27T01:59:35.065Z,0.68
2022-09-27T02:02:09.205Z,0.77
2022-09-27T02:04:40.096Z,0.67
2022-09-27T02:07:27.675Z,0.68
2022-09-27T02:10:10.778Z,0.72
2022-09-27T02:12:51.530Z,0.52
2022-09-27T02:15:19.301Z,0.58
2022-09-27T02:18:16.986Z,0.76
2022-09-27T02:20:55.221Z,0.70
2022-09-27T02:23:44.436Z,0.67
2022-09-27T02:26:32.958Z,0.67
2022-09-27T02:28:59.491Z,0.87
2022-09-27T02:31:26.364Z,0.94
2022-09-27T02:34:00.916Z,0.95
2022-09-27T02:36:28.739Z,0.97
2022-09-27T02:38:55.354Z,0.77
2022-09-27T02:41:23.054Z,0.83
2022-09-27T02:44:02.062Z,0.90
2022-09-27T02:46:34.953Z,0.91
2022-09-27T02:49:30.483Z,0.89
2022-09-27T02:51:59.952Z,0.90
2022-09-27T02:54:57.742Z,0.99
2022-09-27T02:57:55.901Z,1.05
2022-09-27T03:00:37.663Z,1.02
2022-09-27T03:03:24.779Z,1.06
2022-09-27T03:06:00.515Z,0.91
2022-09-27T03:08:27.180Z,1.01
2022-09-27T03:10:53.769Z,1.05
2022-09-27T03:13:20.491Z,0.96
2022-09-27T03:15:47.092Z,0.90
2022-09-27T03:18:13.683Z,1.04
2022-09-27T03:20:40.333Z,1.12
2022-09-27T03:23:06.916Z,1.10
2022-09-27T03:25:33.781Z,0.83
2022-09-27T03:28:00.462Z,1.01
2022-09-27T03:30:27.087Z,1.05
2022-09-27T03:32:53.698Z,0.92
2022-09-27T03:35:21.499Z,0.92
2022-09-27T03:37:48.173Z,0.98
2022-09-27T03:40:15.021Z,0.86
2022-09-27T03:42:45.022Z,1.00
2022-09-27T03:45:14.148Z,0.88
2022-09-27T03:47:42.051Z,0.93
2022-09-27T03:50:10.180Z,1.04
2022-09-27T03:52:37.279Z,1.06
2022-09-27T03:55:05.270Z,0.98
2022-09-27T03:57:32.211Z,1.02
2022-09-27T03:59:59.159Z,1.00
2022-09-27T04:02:27.244Z,0.99
2022-09-27T04:04:54.152Z,1.05
2022-09-27T04:07:20.785Z,1.08
2022-09-27T04:09:47.434Z,0.86
2022-09-27T04:12:14.047Z,1.08
2022-09-27T04:14:40.702Z,1.10
2022-09-27T04:17:07.986Z,1.04
2022-09-27T04:19:34.619Z,1.10
2022-09-27T04:22:01.346Z,1.08
2022-09-27T04:24:27.932Z,1.05
2022-09-27T04:26:54.550Z,1.20
2022-09-27T04:29:21.190Z,1.33
2022-09-27T04:31:47.805Z,1.16
2022-09-27T04:34:14.580Z,1.04
2022-09-27T04:36:41.170Z,1.15
2022-09-27T04:39:09.700Z,0.98
2022-09-27T04:41:36.355Z,1.13
2022-09-27T04:44:03.647Z,1.13
2022-09-27T04:46:30.549Z,1.08
2022-09-27T04:49:00.972Z,0.98
2022-09-27T04:51:28.295Z,1.05
2022-09-27T04:53:56.568Z,0.97
2022-09-27T04:56:25.018Z,1.18
2022-09-27T04:58:51.743Z,1.19
2022-09-27T05:01:18.518Z,1.04
2022-09-27T05:03:45.438Z,0.94
2022-09-27T05:06:13.224Z,1.01
2022-09-27T05:08:39.908Z,1.13
2022-09-27T05:11:06.608Z,1.15
2022-09-27T05:13:33.404Z,1.06
2022-09-27T05:16:04.500Z,1.01
2022-09-27T05:18:31.585Z,0.89
2022-09-27T05:20:59.502Z,0.83
2022-09-27T05:23:26.710Z,0.92
2022-09-27T05:25:53.525Z,0.84
2022-09-27T05:28:20.163Z,0.83
2022-09-27T05:30:46.827Z,0.84
2022-09-27T05:33:13.499Z,0.87
2022-09-27T05:35:44.529Z,0.76
2022-09-27T05:38:11.924Z,1.03
2022-09-27T05:40:42.507Z,0.96
2022-09-27T05:43:10.063Z,1.00
2022-09-27T05:45:36.818Z,1.05
2022-09-27T05:48:04.073Z,1.08
2022-09-27T05:50:31.107Z,1.27
2022-09-27T05:52:58.503Z,1.25
2022-09-27T05:55:25.244Z,1.00
2022-09-27T05:58:04.094Z,0.95
2022-09-27T06:00:32.428Z,1.05
2022-09-27T06:03:03.214Z,0.95
2022-09-27T06:05:36.241Z,0.84
2022-09-27T06:08:06.670Z,0.93
2022-09-27T06:10:34.811Z,0.83
2022-09-27T06:13:13.122Z,0.86
2022-09-27T06:15:42.182Z,0.73
2022-09-27T06:18:14.648Z,0.80
2022-09-27T06:20:41.390Z,0.71
2022-09-27T06:23:09.180Z,0.83
2022-09-27T06:25:37.423Z,0.84
2022-09-27T06:28:05.600Z,0.92
2022-09-27T06:30:32.653Z,0.85
2022-09-27T06:33:03.038Z,0.94
2022-09-27T06:35:30.131Z,1.03
2022-09-27T06:37:56.986Z,1.33
2022-09-27T06:40:23.742Z,1.24
2022-09-27T06:42:50.426Z,1.19
2022-09-27T06:45:17.264Z,1.27
2022-09-27T06:47:43.897Z,1.17
2022-09-27T06:50:10.575Z,1.18
2022-09-27T06:52:37.222Z,1.19
2022-09-27T06:55:05.166Z,1.26
2022-09-27T06:57:31.772Z,1.17
2022-09-27T06:59:58.378Z,1.10
2022-09-27T07:02:24.990Z,1.18
2022-09-27T07:04:51.630Z,1.08
2022-09-27T07:07:18.411Z,0.95
2022-09-27T07:09:44.999Z,0.79
2022-09-27T07:12:11.599Z,0.79
2022-09-27T07:14:38.189Z,0.77
2022-09-27T07:17:04.802Z,0.62
2022-09-27T07:19:31.386Z,0.64
2022-09-27T07:21:58.027Z,0.39
2022-09-27T07:24:24.618Z,0.52
2022-09-27T07:26:51.220Z,0.62
2022-09-27T07:29:17.858Z,0.65
2022-09-27T07:31:46.036Z,0.48
2022-09-27T07:34:12.692Z,0.56
2022-09-27T07:36:39.275Z,0.58
2022-09-27T07:39:06.139Z,0.58
2022-09-27T07:41:32.754Z,0.68
2022-09-27T07:43:59.333Z,0.83
2022-09-27T07:46:25.945Z,0.87
2022-09-27T07:48:52.612Z,0.78
2022-09-27T07:51:19.229Z,0.85
2022-09-27T07:53:45.820Z,0.90
2022-09-27T07:56:12.414Z,0.92
2022-09-27T07:58:39.030Z,0.94
2022-09-27T08:01:05.817Z,0.99
2022-09-27T08:03:32.483Z,0.84
2022-09-27T08:06:03.381Z,0.91
2022-09-27T08:08:30.023Z,1.06
2022-09-27T08:10:56.614Z,1.06
2022-09-27T08:13:23.287Z,1.07
2022-09-27T08:15:49.956Z,1.06
2022-09-27T08:18:16.541Z,1.02
2022-09-27T08:20:43.292Z,1.08
2022-09-27T08:23:10.129Z,1.27
2022-09-27T08:25:36.763Z,1.26
2022-09-27T08:28:04.880Z,0.96
2022-09-27T08:30:32.125Z,1.10
2022-09-27T08:33:01.172Z,1.14
2022-09-27T08:35:28.521Z,0.91
2022-09-27T08:37:57.358Z,1.23
2022-09-27T08:40:35.720Z,1.11
2022-09-27T08:43:20.342Z,0.89
2022-09-27T08:46:15.635Z,0.94
2022-09-27T08:48:49.197Z,0.77
2022-09-27T08:51:28.037Z,0.92
2022-09-27T08:54:03.194Z,1.10
2022-09-27T08:56:31.420Z,0.89
2022-09-27T08:59:08.437Z,0.96
2022-09-27T09:01:35.360Z,1.00
2022-09-27T09:04:03.837Z,0.90
2022-09-27T09:06:46.312Z,0.96
2022-09-27T09:09:43.912Z,0.89
2022-09-27T09:12:26.597Z,0.82
2022-09-27T09:15:18.617Z,1.50
2022-09-27T09:17:47.927Z,1.13
2022-09-27T09:20:48.713Z,0.94
2022-09-27T09:23:18.286Z,0.87
2022-09-27T09:26:13.745Z,1.08
2022-09-27T09:28:59.285Z,1.02
2022-09-27T09:31:38.168Z,1.31
2022-09-27T09:34:17.069Z,1.00
2022-09-27T09:36:57.041Z,1.01
2022-09-27T09:39:32.446Z,0.79
2022-09-27T09:42:11.016Z,1.05
2022-09-27T09:44:54.605Z,0.90
2022-09-27T09:47:40.186Z,0.98
2022-09-27T09:50:19.142Z,1.07
2022-09-27T09:52:57.409Z,0.97
2022-09-27T09:55:29.621Z,1.11
2022-09-27T09:58:03.260Z,1.13
2022-09-27T10:00:29.987Z,1.13
2022-09-27T10:03:00.702Z,1.07
2022-09-27T10:05:28.618Z,1.09
2022-09-27T10:07:59.851Z,1.09
2022-09-27T10:10:27.318Z,1.04
2022-09-27T10:12:56.205Z,1.14
2022-09-27T10:15:28.203Z,1.28
2022-09-27T10:17:58.871Z,1.10
2022-09-27T10:20:31.356Z,1.18
2022-09-27T10:23:11.756Z,1.08
2022-09-27T10:25:49.687Z,1.22
2022-09-27T10:28:31.398Z,1.04
2022-09-27T10:31:01.600Z,1.50
2022-09-27T10:33:30.577Z,1.41
2022-09-27T10:35:58.371Z,1.45
2022-09-27T10:38:36.564Z,1.34
2022-09-27T10:41:26.283Z,1.14
2022-09-27T10:43:53.001Z,1.32
2022-09-27T10:46:29.982Z,1.32
2022-09-27T10:49:18.396Z,1.28
2022-09-27T10:51:50.598Z,1.10
2022-09-27T10:54:33.358Z,1.69
2022-09-27T10:57:15.523Z,1.23
2022-09-27T10:59:46.962Z,1.12
2022-09-27T11:02:22.265Z,1.18
2022-09-27T11:05:29.253Z,1.21
2022-09-27T11:08:02.146Z,1.00
2022-09-27T11:10:36.306Z,1.32
2022-09-27T11:13:12.567Z,1.13
2022-09-27T11:15:57.463Z,0.97
2022-09-27T11:18:53.199Z,0.88
2022-09-27T11:21:31.925Z,0.93
2022-09-27T11:24:01.250Z,0.95
2022-09-27T11:27:07.061Z,1.06
2022-09-27T11:30:03.794Z,1.31
2022-09-27T11:32:43.273Z,1.14
2022-09-27T11:35:15.986Z,1.02
2022-09-27T11:37:45.511Z,0.91
2022-09-27T11:40:33.701Z,1.01
2022-09-27T11:43:38.616Z,1.01
2022-09-27T11:46:28.197Z,0.93
2022-09-27T11:49:19.208Z,0.87
2022-09-27T11:51:45.824Z,0.86
2022-09-27T11:54:40.801Z,0.89
2022-09-27T11:57:26.201Z,0.97
2022-09-27T12:00:01.540Z,0.97
2022-09-27T12:02:45.322Z,1.06
2022-09-27T12:05:30.824Z,1.04
2022-09-27T12:08:25.280Z,0.80
2022-09-27T12:11:03.568Z,0.83
2022-09-27T12:13:46.070Z,1.01
2022-09-27T12:16:17.449Z,1.17
2022-09-27T12:18:51.715Z,0.95
2022-09-27T12:21:20.952Z,0.84
2022-09-27T12:23:54.103Z,0.95
2022-09-27T12:26:43.758Z,1.02
2022-09-27T12:29:25.230Z,0.75
2022-09-27T12:32:06.243Z,0.83
2022-09-27T12:34:45.204Z,1.01
2022-09-27T12:37:21.392Z,0.82
2022-09-27T12:40:16.571Z,0.67
2022-09-27T12:43:08.355Z,1.01
2022-09-27T12:46:06.598Z,1.15
2022-09-27T12:48:36.165Z,1.03
2022-09-27T12:51:11.077Z,1.00
2022-09-27T12:53:47.491Z,0.99
2022-09-27T12:56:30.462Z,0.99
2022-09-27T12:59:53.481Z,0.87
2022-09-27T13:02:44.571Z,0.94
2022-09-27T13:05:27.941Z,1.01
2022-09-27T13:08:22.341Z,0.87
2022-09-27T13:11:18.487Z,0.73
2022-09-27T13:13:46.472Z,0.65
2022-09-27T13:16:13.506Z,0.60
2022-09-27T13:18:50.409Z,0.57
2022-09-27T13:21:46.334Z,0.65
2022-09-27T13:24:48.535Z,0.60
2022-09-27T13:27:27.316Z,0.49
2022-09-27T13:30:14.170Z,0.69
2022-09-27T13:33:11.158Z,0.62
2022-09-27T13:35:38.722Z,0.66
2022-09-27T13:38:06.054Z,0.79
2022-09-27T13:40:35.588Z,0.84
2022-09-27T13:43:11.333Z,0.89
2022-09-27T13:45:57.147Z,0.85
2022-09-27T13:49:03.227Z,1.05
2022-09-27T13:51:48.605Z,0.69
2022-09-27T13:54:33.986Z,1.02
2022-09-27T13:57:02.148Z,1.04
2022-09-27T13:59:52.388Z,1.13
2022-09-27T14:02:29.148Z,1.11
2022-09-27T14:05:01.038Z,0.83
2022-09-27T14:07:40.442Z,0.82
2022-09-27T14:10:15.438Z,0.92
2022-09-27T14:12:45.511Z,0.81
2022-09-27T14:15:22.661Z,0.79
2022-09-27T14:17:51.483Z,0.87
2022-09-27T14:20:44.076Z,0.78
2022-09-27T14:23:25.772Z,0.69
2022-09-27T14:25:55.110Z,0.83
2022-09-27T14:28:27.158Z,0.82
2022-09-27T14:31:12.346Z,0.76
2022-09-27T14:33:38.985Z,0.82
2022-09-27T14:36:21.594Z,0.78
2022-09-27T14:38:50.313Z,0.92
2022-09-27T14:41:17.172Z,0.83
2022-09-27T14:43:46.860Z,0.80
2022-09-27T14:46:31.587Z,0.81
2022-09-27T14:48:58.307Z,0.79
2022-09-27T14:51:30.996Z,0.86
2022-09-27T14:54:00.328Z,0.90
2022-09-27T14:56:39.065Z,1.12
2022-09-27T14:59:17.680Z,0.85
2022-09-27T15:01:51.595Z,0.92
2022-09-27T15:04:21.919Z,1.03
2022-09-27T15:06:50.268Z,1.32
2022-09-27T15:09:19.267Z,1.52
2022-09-27T15:11:53.177Z,1.29
2022-09-27T15:14:21.972Z,1.13
2022-09-27T15:16:50.918Z,1.07
2022-09-27T15:19:24.322Z,1.05
2022-09-27T15:21:51.223Z,1.05
2022-09-27T15:24:43.314Z,1.06
2022-09-27T15:27:24.357Z,1.09
2022-09-27T15:29:58.219Z,1.26
2022-09-27T15:32:28.709Z,1.10
2022-09-27T15:34:57.348Z,1.35
2022-09-27T15:37:26.697Z,1.21
2022-09-27T15:39:53.768Z,1.02
2022-09-27T15:42:20.641Z,1.03
2022-09-27T15:44:53.445Z,1.04
2022-09-27T15:47:32.248Z,1.09
2022-09-27T15:50:19.621Z,1.08
2022-09-27T15:52:48.983Z,1.09
2022-09-27T15:55:15.879Z,1.02
2022-09-27T15:57:45.736Z,1.11
2022-09-27T16:00:15.643Z,1.12
2022-09-27T16:02:42.590Z,1.08
2022-09-27T16:05:09.346Z,1.14
2022-09-27T16:07:36.460Z,1.16
2022-09-27T16:10:14.868Z,1.05
2022-09-27T16:12:41.526Z,1.24
2022-09-27T16:15:08.460Z,1.17
2022-09-27T16:17:35.046Z,1.08
2022-09-27T16:20:01.756Z,1.08
2022-09-27T16:22:29.461Z,1.20
2022-09-27T16:24:56.195Z,1.33
2022-09-27T16:27:31.417Z,1.26
2022-09-27T16:29:58.019Z,1.40
2022-09-27T16:32:24.692Z,1.24
2022-09-27T16:34:52.747Z,1.21
2022-09-27T16:37:19.349Z,1.19
2022-09-27T16:39:45.993Z,1.52
2022-09-27T16:42:12.634Z,1.36
2022-09-27T16:44:40.876Z,1.32
2022-09-27T16:47:07.617Z,1.29
2022-09-27T16:49:34.181Z,1.32
2022-09-27T16:52:00.998Z,1.44
2022-09-27T16:54:31.216Z,1.36
2022-09-27T16:56:59.374Z,1.25
2022-09-27T16:59:27.560Z,1.36
2022-09-27T17:01:54.914Z,1.53
2022-09-27T17:04:21.566Z,1.22
2022-09-27T17:06:48.290Z,1.38
2022-09-27T17:09:14.843Z,1.55
2022-09-27T17:11:41.415Z,1.39
2022-09-27T17:14:11.770Z,1.51
2022-09-27T17:16:38.408Z,1.51
2022-09-27T17:19:05.096Z,1.67
2022-09-27T17:21:35.662Z,1.60
2022-09-27T17:24:05.070Z,1.48
2022-09-27T17:26:31.813Z,1.93
2022-09-27T17:28:59.907Z,2.28
2022-09-27T17:31:28.549Z,1.65
2022-09-27T17:33:57.856Z,1.56
2022-09-27T17:36:28.137Z,1.72
2022-09-27T17:38:54.869Z,1.59
2022-09-27T17:41:23.626Z,1.78
2022-09-27T17:44:00.389Z,1.67
2022-09-27T17:46:35.511Z,1.51
2022-09-27T17:49:03.332Z,1.62
2022-09-27T17:51:30.641Z,1.81
2022-09-27T17:53:58.158Z,1.53
2022-09-27T17:56:24.793Z,1.80
2022-09-27T17:58:54.231Z,1.73
2022-09-27T18:01:25.438Z,1.77
2022-09-27T18:03:55.042Z,1.69
2022-09-27T18:06:23.265Z,1.82
2022-09-27T18:08:50.832Z,1.71
2022-09-27T18:11:20.425Z,1.64
2022-09-27T18:13:49.103Z,1.70
2022-09-27T18:16:18.556Z,1.64
2022-09-27T18:18:47.368Z,1.61
2022-09-27T18:21:17.080Z,1.86
2022-09-27T18:23:43.758Z,1.45
2022-09-27T18:26:11.199Z,1.88
2022-09-27T18:28:40.934Z,1.69
2022-09-27T18:31:07.490Z,1.76
2022-09-27T18:33:34.737Z,1.83
2022-09-27T18:36:06.970Z,1.62
2022-09-27T18:38:34.880Z,1.80
2022-09-27T18:41:08.877Z,2.48
2022-09-27T18:43:38.858Z,2.49
2022-09-27T18:46:33.864Z,1.71
2022-09-27T18:48:56.064Z,1.69
2022-09-27T18:51:25.246Z,1.75
2022-09-27T18:53:55.615Z,2.08
2022-09-27T18:56:23.332Z,1.83
2022-09-27T18:58:50.642Z,1.71
2022-09-27T19:01:18.759Z,1.89
2022-09-27T19:03:45.516Z,1.88
2022-09-27T19:06:18.281Z,2.05
2022-09-27T19:08:45.275Z,1.66
2022-09-27T19:11:18.409Z,1.76
2022-09-27T19:13:51.661Z,1.75
2022-09-27T19:16:19.797Z,1.77
2022-09-27T19:18:46.688Z,1.70
2022-09-27T19:21:16.637Z,1.59
2022-09-27T19:23:43.316Z,1.57
2022-09-27T19:26:13.843Z,1.65
2022-09-27T19:28:42.933Z,1.66
2022-09-27T19:31:22.701Z,1.73
2022-09-27T19:33:49.810Z,1.99
2022-09-27T19:36:18.159Z,2.20
2022-09-27T19:38:45.581Z,1.95
2022-09-27T19:41:14.763Z,2.09
2022-09-27T19:43:42.540Z,2.09
2022-09-27T19:46:14.397Z,2.13
2022-09-27T19:48:41.509Z,2.29
2022-09-27T19:51:14.238Z,2.33
2022-09-27T19:53:40.845Z,2.25
2022-09-27T19:56:09.951Z,2.50
2022-09-27T19:58:38.532Z,2.16
2022-09-27T20:01:11.048Z,2.29
2022-09-27T20:03:40.824Z,2.25
2022-09-27T20:06:10.774Z,2.33
2022-09-27T20:08:37.963Z,2.42
2022-09-27T20:11:08.467Z,2.40
2022-09-27T20:13:37.698Z,2.17
2022-09-27T20:16:10.195Z,2.14
2022-09-27T20:18:43.978Z,1.88
2022-09-27T20:21:11.795Z,1.78
2022-09-27T20:23:38.665Z,1.96
2022-09-27T20:26:17.196Z,1.84
2022-09-27T20:28:49.406Z,1.79
2022-09-27T20:31:39.704Z,1.83
2022-09-27T20:34:13.102Z,1.53
2022-09-27T20:36:42.676Z,1.65
2022-09-27T20:39:12.251Z,1.91
2022-09-27T20:41:44.974Z,1.61
2022-09-27T20:44:17.072Z,1.69
2022-09-27T20:46:45.388Z,1.61
2022-09-27T20:49:18.166Z,1.58
2022-09-27T20:51:47.095Z,1.59
2022-09-27T20:54:14.009Z,1.46
2022-09-27T20:56:43.709Z,1.52
2022-09-27T20:59:15.136Z,1.60
2022-09-27T21:01:44.420Z,1.56
2022-09-27T21:04:12.792Z,1.60
2022-09-27T21:06:39.835Z,1.49
2022-09-27T21:09:08.259Z,1.74
2022-09-27T21:11:35.302Z,1.72
2022-09-27T21:14:02.104Z,1.64
2022-09-27T21:16:34.750Z,1.90
2022-09-27T21:19:01.552Z,1.93
2022-09-27T21:21:28.132Z,1.90
2022-09-27T21:24:00.411Z,2.06
2022-09-27T21:26:32.485Z,2.20
2022-09-27T21:29:01.163Z,2.41
2022-09-27T21:31:32.526Z,2.28
2022-09-27T21:34:01.857Z,2.42
2022-09-27T21:36:37.766Z,2.58
2022-09-27T21:39:06.883Z,2.85
2022-09-27T21:41:33.656Z,2.48
2022-09-27T21:44:04.253Z,2.02
2022-09-27T21:46:30.874Z,2.24
2022-09-27T21:49:00.217Z,2.17
2022-09-27T21:51:39.092Z,2.05
2022-09-27T21:54:10.671Z,1.94
2022-09-27T21:56:39.727Z,1.88
2022-09-27T21:59:09.873Z,1.75
2022-09-27T22:01:36.590Z,1.85
2022-09-27T22:04:05.973Z,1.77
2022-09-27T22:06:35.057Z,1.70
2022-09-27T22:09:07.290Z,1.64
2022-09-27T22:11:38.915Z,1.73
2022-09-27T22:14:05.766Z,1.72
2022-09-27T22:16:32.848Z,1.70
2022-09-27T22:18:59.744Z,1.76
2022-09-27T22:21:29.339Z,1.69
2022-09-27T22:24:07.825Z,1.87
2022-09-27T22:26:37.249Z,1.62
2022-09-27T22:29:04.074Z,1.74
2022-09-27T22:31:30.722Z,1.83
2022-09-27T22:34:01.991Z,1.51
2022-09-27T22:36:29.576Z,1.56
2022-09-27T22:38:57.170Z,1.61
2022-09-27T22:41:24.055Z,1.57
2022-09-27T22:43:51.021Z,1.43
2022-09-27T22:46:17.614Z,1.71
2022-09-27T22:48:44.272Z,1.56
2022-09-27T22:51:10.881Z,1.39
2022-09-27T22:53:38.848Z,1.49
2022-09-27T22:56:08.523Z,1.26
2022-09-27T22:58:37.161Z,1.34
2022-09-27T23:01:09.301Z,1.31
2022-09-27T23:03:36.063Z,1.17
2022-09-27T23:06:04.235Z,1.33
2022-09-27T23:08:35.792Z,1.20
2022-09-27T23:11:17.539Z,1.13
2022-09-27T23:13:45.418Z,1.08
2022-09-27T23:16:21.376Z,0.98
2022-09-27T23:18:48.101Z,1.08
2022-09-27T23:21:16.096Z,1.09
2022-09-27T23:23:45.474Z,1.17
2022-09-27T23:26:15.040Z,1.07
2022-09-27T23:28:43.071Z,0.95
2022-09-27T23:31:15.911Z,0.90
2022-09-27T23:33:45.676Z,0.98
2022-09-27T23:36:16.168Z,1.00
2022-09-27T23:38:44.306Z,0.81
2022-09-27T23:41:12.225Z,0.82
2022-09-27T23:43:39.072Z,0.90
2022-09-27T23:46:07.922Z,0.88
2022-09-27T23:48:35.803Z,0.83
2022-09-27T23:51:04.235Z,0.99
2022-09-27T23:53:31.192Z,0.93
2022-09-27T23:56:08.078Z,0.88
2022-09-27T23:58:41.446Z,0.95
